• Join FlightAware (Why Join?)
  • Login
  • US Flag 
12:38PM EDT


 

Airport Tracker/Info


-or-


 

Live Flight TrackerFlight Track Log ✈ UAL5859 ✈ 15-Jun-2013 ✈ CYYZ - KORD

Flight Track Log - Related Links

Times and Time Zones

All times are in EDT time to prevent confusion due to time zone crossing. See the UAL5859 flight status page for this flight to view local times or setup timezone preferences in your user account.

Time Position Orientation Groundspeed Altitude Reporting Facility
EDT Latitude Longitude Course Direction KTS MPH feet Rate Location/Type
03:06PM 43.7000 -79.6333 277° West 170 196 2,000  Level Toronto Center
03:07PM 43.7500 -79.6833 324° Northwest 250 288 3,600 1,500 Climbing Toronto Center
03:08PM 43.6764 -79.9182 281° West  Level FlightAware Approximate
03:08PM 43.8000 -79.7500 316° Northwest 240 276 5,100  Level Toronto Center
03:09PM 43.6879 -80.0211 277° West  Level FlightAware Approximate
03:09PM 43.8000 -79.8333 270° West 250 288 7,100  Level Toronto Center
03:10PM 43.6965 -80.1246 277° West  Level FlightAware Approximate
03:10PM 43.7833 -79.9333 257° West 260 299 9,400  Level Toronto Center
03:11PM 43.7036 -80.2564 277° West  Level FlightAware Approximate
03:11PM 43.7833 -80.0500 270° West 270 311 10,700  Level Toronto Center
03:12PM 43.7667 -80.1667 259° West 310 357 11,800 1,200 Climbing Toronto Center
03:13PM 43.7667 -80.2833 270° West 330 380 13,100 1,320 Climbing Toronto Center
03:14PM 43.7500 -80.4167 260° West 330 380 14,500 1,200 Climbing Toronto Center
03:15PM 43.7333 -80.5333 259° West 340 391 15,600 1,140 Climbing Toronto Center
03:16PM 43.7167 -80.6667 260° West 350 403 16,800 1,080 Climbing Toronto Center
03:17PM 43.6833 -80.8167 253° West 350 403 17,800 1,020 Climbing Toronto Center
03:18PM 43.6333 -80.9500 243° Southwest 360 414 18,900 1,080 Climbing Toronto Center
03:19PM 43.6167 -81.0667 259° West 360 414 20,000 1,080 Climbing Toronto Center
03:20PM 43.5833 -81.2000 251° West 360 414 21,100 1,080 Climbing Toronto Center
03:21PM 43.5667 -81.3333 260° West 360 414 22,200 1,140 Climbing Toronto Center
03:22PM 43.5333 -81.4667 251° West 370 426 23,400 1,080 Climbing Toronto Center
03:23PM 43.5000 -81.6167 253° West 370 426 24,400 1,080 Climbing Toronto Center
03:24PM 43.4667 -81.7500 251° West 370 426 25,600 1,140 Climbing Toronto Center
03:25PM 43.4500 -81.8667 259° West 360 414 26,700 1,020 Climbing Toronto Center
03:26PM 43.4000 -82.0000 243° Southwest 360 414 27,700 600 Climbing Toronto Center
03:27PM 43.3667 -82.1333 251° West 360 414 28,000 120 Climbing Toronto Center
03:28PM 43.3500 -82.2667 260° West 370 426 28,000  Level Toronto Center
03:29PM 43.3167 -82.4000 251° West 390 449 28,000  Level Toronto Center
03:30PM 43.2833 -82.5333 251° West 390 449 28,000  Level Toronto Center
03:30PM 43.2622 -82.6842 259° West 390 449 28,000  Level Cleveland Center
03:31PM 43.2219 -82.8339 250° West 402 463 28,000  Level Cleveland Center
03:32PM 43.1836 -82.9778 250° West 407 468 28,000  Level Cleveland Center
03:33PM 43.1431 -83.1211 249° West 407 468 28,000  Level Cleveland Center
03:34PM 43.1022 -83.2675 249° West 407 468 28,000  Level Cleveland Center
03:35PM 43.0611 -83.4133 249° West 407 468 28,000  Level Cleveland Center
03:36PM 43.0200 -83.5622 249° West 413 475 28,000  Level Cleveland Center
03:37PM 42.9764 -83.7075 248° West 413 475 28,000  Level Cleveland Center
03:38PM 42.9514 -83.8567 257° West 413 475 28,000  Level Cleveland Center
03:39PM 42.9386 -84.0150 264° West 407 468 28,000  Level Cleveland Center
03:40PM 42.9256 -84.1703 264° West 417 480 28,000  Level Cleveland Center
03:41PM 42.9161 -84.2611 262° West 414 476 28,000  Level Chicago Center
03:42PM 42.9008 -84.4178 262° West 417 480 28,000  Level Chicago Center
03:43PM 42.8850 -84.5736 262° West 418 481 28,000  Level Chicago Center
03:44PM 42.8689 -84.7311 262° West 421 484 28,000  Level Chicago Center
03:45PM 42.8522 -84.8881 262° West 419 482 28,000  Level Chicago Center
03:46PM 42.8314 -85.0781 262° West 423 487 28,000  Level Chicago Center
03:47PM 42.8144 -85.2364 262° West 424 488 28,000 -60 Level Chicago Center
03:48PM 42.7972 -85.3933 262° West 419 482 27,900 -540 Descending Chicago Center
03:49PM 42.7769 -85.5556 260° West 431 496 27,000 -1,140 Descending Chicago Center
03:50PM 42.7469 -85.7178 256° West 438 504 25,600 -1,440 Descending Chicago Center
03:51PM 42.7172 -85.8786 256° West 437 503 24,100 -1,500 Descending Chicago Center
03:52PM 42.6897 -86.0361 257° West 427 491 22,600 -1,440 Descending Chicago Center
03:53PM 42.6606 -86.1911 256° West 422 486 21,200 -1,260 Descending Chicago Center
03:54PM 42.6322 -86.3394 255° West 411 473 20,100 -1,260 Descending Chicago Center
03:56PM 42.5992 -86.5169 256° West 405 466 18,700 -1,800 Descending Chicago Center
03:57PM 42.5708 -86.6661 256° West 407 468 16,400 -2,340 Descending Chicago Center
03:58PM 42.5406 -86.8086 254° West 399 459 13,900 -2,220 Descending Chicago Center
03:59PM 42.5028 -86.9386 249° West 379 436 11,900 -1,860 Descending Chicago Center
04:00PM 42.4667 -87.0664 249° West 367 422 10,100 -960 Descending Chicago Center
04:01PM 42.4339 -87.1844 249° West 343 395 10,000 -600 Descending Chicago Center
04:02PM 42.3833 -87.3667 249° West 280 322 8,500 -1,080 Descending Chicago TRACON
04:03PM 42.3750 -87.4008 252° West 278 320 7,900 -1,500 Descending Chicago Center
04:04PM 42.3500 -87.4936 250° West 269 310 6,400 -960 Descending Chicago Center
04:05PM 42.3000 -87.5425 216° Southwest 258 297 6,000 -300 Descending Chicago Center
04:06PM 42.2272 -87.5128 163° South 270 311 5,800 -660 Descending Chicago Center
04:07PM 42.1553 -87.4875 165° South 268 308 4,700 -960 Descending Chicago Center
04:08PM 42.0861 -87.4214 145° Southeast 255 293 3,900 -420 Descending Chicago Center
04:09PM 42.0247 -87.4069 170° South 238 274 3,900  Level Chicago Center
04:10PM 42.0017 -87.4714 244° Southwest 223 257 4,000  Climbing Chicago Center
04:11PM 42.0025 -87.5397 271° West 201 231 3,900 -60 Descending Chicago Center
04:12PM 42.0028 -87.6033 270° West 185 213 3,900  Level Chicago Center
04:13PM 42.0031 -87.6681 270° West 179 206 3,900  Level Chicago Center